createdAt,value
2018-02-16T00:00:24.683Z,99.99
2018-02-16T00:01:24.734Z,99.99
2018-02-16T00:02:24.785Z,99.99
2018-02-16T00:03:24.839Z,99.99
2018-02-16T00:04:24.893Z,99.99
2018-02-16T00:05:24.947Z,99.99
2018-02-16T00:06:25.003Z,99.99
2018-02-16T00:07:25.057Z,99.99
2018-02-16T00:08:25.112Z,99.99
2018-02-16T00:09:25.168Z,99.99
2018-02-16T00:10:25.220Z,99.99
2018-02-16T00:11:25.278Z,99.99
2018-02-16T00:12:25.329Z,99.99
2018-02-16T00:13:25.385Z,99.99
2018-02-16T00:14:25.439Z,99.99
2018-02-16T00:15:25.495Z,99.99
2018-02-16T00:16:26.286Z,99.99
2018-02-16T00:17:25.602Z,99.99
2018-02-16T00:18:26.335Z,99.99
2018-02-16T00:19:25.713Z,99.99
2018-02-16T00:20:25.765Z,99.99
2018-02-16T00:21:25.820Z,99.99
2018-02-16T00:22:25.875Z,99.99
2018-02-16T00:23:25.930Z,99.99
2018-02-16T00:24:25.983Z,99.99
2018-02-16T00:25:26.038Z,99.99
2018-02-16T00:26:26.093Z,99.99
2018-02-16T00:27:26.148Z,99.99
2018-02-16T00:28:26.203Z,99.99
2018-02-16T00:29:26.255Z,99.99
2018-02-16T00:30:26.309Z,99.99
2018-02-16T00:31:26.365Z,99.99
2018-02-16T00:32:26.418Z,99.99
2018-02-16T00:33:26.476Z,99.99
2018-02-16T00:34:26.529Z,99.99
2018-02-16T00:35:26.583Z,99.99
2018-02-16T00:36:26.636Z,99.99
2018-02-16T00:37:26.690Z,99.99
2018-02-16T00:38:26.745Z,99.99
2018-02-16T00:39:26.800Z,99.99
2018-02-16T00:40:26.852Z,99.99
2018-02-16T00:41:26.908Z,99.99
2018-02-16T00:42:26.961Z,99.99
2018-02-16T00:43:27.016Z,99.99
2018-02-16T00:44:27.220Z,99.99
2018-02-16T00:45:27.124Z,99.99
2018-02-16T00:46:27.177Z,99.99
2018-02-16T00:47:27.232Z,99.99
2018-02-16T00:48:27.285Z,99.99
2018-02-16T00:49:27.340Z,99.99
2018-02-16T00:50:27.394Z,99.99
2018-02-16T00:51:27.450Z,99.99
2018-02-16T00:52:27.502Z,99.99
2018-02-16T00:53:27.557Z,99.99
2018-02-16T00:54:27.614Z,99.99
2018-02-16T00:55:27.665Z,99.99
2018-02-16T00:56:27.720Z,99.99
2018-02-16T00:57:27.774Z,99.99
2018-02-16T00:58:27.825Z,99.99
2018-02-16T00:59:27.881Z,99.99
2018-02-16T01:00:27.932Z,99.99
2018-02-16T01:01:27.988Z,99.99
2018-02-16T01:02:28.042Z,99.99
2018-02-16T01:03:28.094Z,99.99
2018-02-16T01:04:28.149Z,99.99
2018-02-16T01:05:28.202Z,99.99
2018-02-16T01:06:28.256Z,99.99
2018-02-16T01:07:28.310Z,99.99
2018-02-16T01:08:28.364Z,99.99
2018-02-16T01:09:28.418Z,99.99
2018-02-16T01:10:28.470Z,99.99
2018-02-16T01:11:28.525Z,99.99
2018-02-16T01:12:28.579Z,99.99
2018-02-16T01:13:28.633Z,99.99
2018-02-16T01:14:28.686Z,99.99
2018-02-16T01:15:28.739Z,99.99
2018-02-16T01:16:28.792Z,99.99
2018-02-16T01:17:28.845Z,99.99
2018-02-16T01:18:28.900Z,99.99
2018-02-16T01:19:28.953Z,99.99
2018-02-16T01:20:29.007Z,99.99
2018-02-16T01:21:29.060Z,99.99
2018-02-16T01:22:29.117Z,99.99
2018-02-16T01:23:29.173Z,99.99
2018-02-16T01:24:29.220Z,99.99
2018-02-16T01:25:29.275Z,99.99
2018-02-16T01:26:29.329Z,99.99
2018-02-16T01:27:29.386Z,99.99
2018-02-16T01:28:29.434Z,99.99
2018-02-16T01:29:29.489Z,99.99
2018-02-16T01:30:29.543Z,99.99
2018-02-16T01:31:29.596Z,99.99
2018-02-16T01:32:29.650Z,99.99
2018-02-16T01:33:29.704Z,99.99
2018-02-16T01:34:29.757Z,99.99
2018-02-16T01:35:29.812Z,99.99
2018-02-16T01:36:29.864Z,99.99
2018-02-16T01:37:29.917Z,99.99
2018-02-16T01:38:29.973Z,99.99
2018-02-16T01:39:30.026Z,99.99
2018-02-16T01:40:30.078Z,99.99
2018-02-16T01:41:30.132Z,99.99
2018-02-16T01:42:30.185Z,99.99
2018-02-16T01:43:30.240Z,99.99
2018-02-16T01:44:30.291Z,99.99
2018-02-16T01:45:30.348Z,99.99
2018-02-16T01:46:30.400Z,99.99
2018-02-16T01:47:30.454Z,99.99
2018-02-16T01:48:30.507Z,99.99
2018-02-16T01:49:30.560Z,99.99
2018-02-16T01:50:30.615Z,99.99
2018-02-16T01:51:30.668Z,99.99
2018-02-16T01:52:30.721Z,99.99
2018-02-16T01:53:30.776Z,99.99
2018-02-16T01:54:30.829Z,99.99
2018-02-16T01:55:30.882Z,99.99
2018-02-16T01:56:30.936Z,99.99
2018-02-16T01:57:30.988Z,99.99
2018-02-16T01:58:31.046Z,99.99
2018-02-16T01:59:31.097Z,99.99
2018-02-16T02:00:31.150Z,99.99
2018-02-16T02:01:31.237Z,99.99
2018-02-16T02:02:31.261Z,99.99
2018-02-16T02:03:31.311Z,99.99
2018-02-16T02:04:31.366Z,99.99
2018-02-16T02:05:31.419Z,99.99
2018-02-16T02:06:31.472Z,99.99
2018-02-16T02:07:31.525Z,99.99
2018-02-16T02:08:31.578Z,99.99
2018-02-16T02:09:31.782Z,99.99
2018-02-16T02:10:31.686Z,99.99
2018-02-16T02:11:31.740Z,99.99
2018-02-16T02:12:31.794Z,99.99
2018-02-16T02:13:31.847Z,99.99
2018-02-16T02:14:31.901Z,99.99
2018-02-16T02:15:31.960Z,99.99
2018-02-16T02:16:32.007Z,99.99
2018-02-16T02:17:32.061Z,99.99
2018-02-16T02:18:32.116Z,99.99
2018-02-16T02:19:32.170Z,99.99
2018-02-16T02:20:32.222Z,99.99
2018-02-16T02:21:32.278Z,99.99
2018-02-16T02:22:32.331Z,99.99
2018-02-16T02:23:32.383Z,99.99
2018-02-16T02:24:32.463Z,99.99
2018-02-16T02:25:32.492Z,99.99
2018-02-16T02:26:32.602Z,99.99
2018-02-16T02:27:32.640Z,99.99
2018-02-16T02:28:32.690Z,99.99
2018-02-16T02:29:32.747Z,99.99
2018-02-16T02:30:32.805Z,99.99
2018-02-16T02:31:32.811Z,99.99
2018-02-16T02:32:33.083Z,99.99
2018-02-16T02:33:32.970Z,99.99
2018-02-16T02:34:33.006Z,99.99
2018-02-16T02:35:33.061Z,99.99
2018-02-16T02:36:33.114Z,99.99
2018-02-16T02:37:33.177Z,99.99
2018-02-16T02:38:33.188Z,99.99
2018-02-16T02:39:33.242Z,99.99
2018-02-16T02:40:33.294Z,99.99
2018-02-16T02:41:33.348Z,99.99
2018-02-16T02:42:33.401Z,99.99
2018-02-16T02:43:33.457Z,99.99
2018-02-16T02:44:33.512Z,99.99
2018-02-16T02:45:33.562Z,99.99
2018-02-16T02:46:33.659Z,99.99
2018-02-16T02:47:33.703Z,99.99
2018-02-16T02:48:33.722Z,99.99
2018-02-16T02:49:33.776Z,99.99
2018-02-16T02:50:33.831Z,99.99
2018-02-16T02:51:33.883Z,99.99
2018-02-16T02:52:33.939Z,99.99
2018-02-16T02:53:33.991Z,99.99
2018-02-16T02:54:34.044Z,99.99
2018-02-16T02:55:34.101Z,99.99
2018-02-16T02:56:34.151Z,99.99
2018-02-16T02:57:34.205Z,99.99
2018-02-16T02:58:34.259Z,99.99
2018-02-16T02:59:34.312Z,99.99
2018-02-16T03:00:34.365Z,99.99
2018-02-16T03:01:34.418Z,99.99
2018-02-16T03:02:34.473Z,99.99
2018-02-16T03:03:34.526Z,99.99
2018-02-16T03:04:34.581Z,99.99
2018-02-16T03:05:34.632Z,99.99
2018-02-16T03:06:34.685Z,99.99
2018-02-16T03:07:34.740Z,99.99
2018-02-16T03:08:34.791Z,99.99
2018-02-16T03:09:34.846Z,99.99
2018-02-16T03:10:34.901Z,99.99
2018-02-16T03:11:34.954Z,99.99
2018-02-16T03:12:35.006Z,99.99
2018-02-16T03:13:35.061Z,99.99
2018-02-16T03:14:35.114Z,99.99
2018-02-16T03:15:35.167Z,99.99
2018-02-16T03:16:35.221Z,99.99
2018-02-16T03:17:35.275Z,99.99
2018-02-16T03:18:35.329Z,99.99
2018-02-16T03:19:35.384Z,99.99
2018-02-16T03:20:35.435Z,99.99
2018-02-16T03:21:35.490Z,99.99
2018-02-16T03:22:35.547Z,99.99
2018-02-16T03:23:35.597Z,99.99
2018-02-16T03:24:35.650Z,99.99
2018-02-16T03:25:35.703Z,99.99
2018-02-16T03:26:35.757Z,99.99
2018-02-16T03:27:35.811Z,99.99
2018-02-16T03:28:36.014Z,99.99
2018-02-16T03:29:35.917Z,99.99
2018-02-16T03:30:35.972Z,99.99
2018-02-16T03:31:36.033Z,99.99
2018-02-16T03:32:36.079Z,99.99
2018-02-16T03:33:36.132Z,99.99
2018-02-16T03:34:36.186Z,99.99
2018-02-16T03:35:36.239Z,99.99
2018-02-16T03:36:36.293Z,99.99
2018-02-16T03:37:36.345Z,99.99
2018-02-16T03:38:36.404Z,99.99
2018-02-16T03:39:36.452Z,99.99
2018-02-16T03:40:36.505Z,99.99
2018-02-16T03:41:36.561Z,99.99
2018-02-16T03:42:36.613Z,99.99
2018-02-16T03:43:36.666Z,99.99
2018-02-16T03:44:36.720Z,99.99
2018-02-16T03:45:36.775Z,99.99
2018-02-16T03:46:36.826Z,99.99
2018-02-16T03:47:36.880Z,99.99
2018-02-16T03:48:36.932Z,99.99
2018-02-16T03:49:36.986Z,99.99
2018-02-16T03:50:37.039Z,99.99
2018-02-16T03:51:37.094Z,99.99
2018-02-16T03:52:37.145Z,99.99
2018-02-16T03:53:37.202Z,99.99
2018-02-16T03:54:37.253Z,99.99
2018-02-16T03:55:37.307Z,99.99
2018-02-16T03:56:37.360Z,99.99
2018-02-16T03:57:37.412Z,99.99
2018-02-16T03:58:37.466Z,99.99
2018-02-16T03:59:37.518Z,99.99
2018-02-16T04:00:37.571Z,99.99
2018-02-16T04:01:37.624Z,99.99
2018-02-16T04:02:37.678Z,99.99
2018-02-16T04:03:37.730Z,99.99
2018-02-16T04:04:37.784Z,99.99
2018-02-16T04:05:37.837Z,99.99
2018-02-16T04:06:37.891Z,99.99
2018-02-16T04:07:37.944Z,99.99
2018-02-16T04:08:37.996Z,99.99
2018-02-16T04:09:38.049Z,99.99
2018-02-16T04:10:38.104Z,99.99
2018-02-16T04:11:38.156Z,99.99
2018-02-16T04:12:38.209Z,99.99
2018-02-16T04:13:38.263Z,99.99
2018-02-16T04:14:38.316Z,99.99
2018-02-16T04:15:38.369Z,99.99
2018-02-16T04:16:38.421Z,99.99
2018-02-16T04:17:38.477Z,99.99
2018-02-16T04:18:38.529Z,99.99
2018-02-16T04:19:38.582Z,99.99
2018-02-16T04:20:38.634Z,99.99
2018-02-16T04:21:38.690Z,99.99
2018-02-16T04:22:38.741Z,99.99
2018-02-16T04:23:38.793Z,99.99
2018-02-16T04:24:38.847Z,99.99
2018-02-16T04:25:38.900Z,99.99
2018-02-16T04:26:38.955Z,99.99
2018-02-16T04:27:39.010Z,99.99
2018-02-16T04:28:39.059Z,99.99
2018-02-16T04:29:39.112Z,99.99
2018-02-16T04:30:39.166Z,99.99
2018-02-16T04:31:39.220Z,99.99
2018-02-16T04:32:39.275Z,99.99
2018-02-16T04:33:39.324Z,99.99
2018-02-16T04:34:39.377Z,99.99
2018-02-16T04:35:39.430Z,99.99
2018-02-16T04:36:39.483Z,99.99
2018-02-16T04:37:39.687Z,99.99
2018-02-16T04:38:39.591Z,99.99
2018-02-16T04:39:39.643Z,99.99
2018-02-16T04:40:39.695Z,99.99
2018-02-16T04:41:39.748Z,99.99
2018-02-16T04:42:39.801Z,99.99
2018-02-16T04:43:39.854Z,99.99
2018-02-16T04:44:39.906Z,99.99
2018-02-16T04:45:39.960Z,99.99
2018-02-16T04:46:40.013Z,99.99
2018-02-16T04:47:40.066Z,99.99
2018-02-16T04:48:40.118Z,99.99
2018-02-16T04:49:40.171Z,99.99
2018-02-16T04:50:40.225Z,99.99
2018-02-16T04:51:40.276Z,99.99
2018-02-16T04:52:40.329Z,99.99
2018-02-16T04:53:40.382Z,99.99
2018-02-16T04:54:40.636Z,99.99
2018-02-16T04:55:40.488Z,99.99
2018-02-16T04:56:40.549Z,99.99
2018-02-16T04:57:40.594Z,99.99
2018-02-16T04:58:40.647Z,99.99
2018-02-16T04:59:40.735Z,99.99
2018-02-16T05:00:40.817Z,99.99
2018-02-16T05:01:41.215Z,99.99
2018-02-16T05:02:40.858Z,99.99
2018-02-16T05:03:40.910Z,99.99
2018-02-16T05:04:40.963Z,99.99
2018-02-16T05:05:41.016Z,99.99
2018-02-16T05:06:41.070Z,99.99
2018-02-16T05:07:41.122Z,99.99
2018-02-16T05:08:41.173Z,99.99
2018-02-16T05:09:41.227Z,99.99
2018-02-16T05:10:42.480Z,99.99
2018-02-16T05:11:41.334Z,99.99
2018-02-16T05:12:41.391Z,99.99
2018-02-16T05:13:41.438Z,99.99
2018-02-16T05:14:41.491Z,99.99
2018-02-16T05:15:41.543Z,99.99
2018-02-16T05:16:41.596Z,99.99
2018-02-16T05:17:41.649Z,99.99
2018-02-16T05:18:41.701Z,99.99
2018-02-16T05:19:41.755Z,99.99
2018-02-16T05:20:41.806Z,99.99
2018-02-16T05:21:41.860Z,99.99
2018-02-16T05:22:41.913Z,99.99
2018-02-16T05:23:41.964Z,99.99
2018-02-16T05:24:42.017Z,99.99
2018-02-16T05:25:42.068Z,99.99
2018-02-16T05:26:42.122Z,99.99
2018-02-16T05:27:42.175Z,99.99
2018-02-16T05:28:42.227Z,99.99
2018-02-16T05:29:42.430Z,99.99
2018-02-16T05:30:42.334Z,99.99
2018-02-16T05:31:42.386Z,99.99
2018-02-16T05:32:42.439Z,99.99
2018-02-16T05:33:42.492Z,99.99
2018-02-16T05:34:42.544Z,99.99
2018-02-16T05:35:42.596Z,99.99
2018-02-16T05:36:42.651Z,99.99
2018-02-16T05:37:42.700Z,99.99
2018-02-16T05:38:42.752Z,99.99
2018-02-16T05:39:43.041Z,99.99
2018-02-16T05:40:42.857Z,99.99
2018-02-16T05:41:42.910Z,99.99
2018-02-16T05:42:42.964Z,99.99
2018-02-16T05:43:43.017Z,99.99
2018-02-16T05:44:43.067Z,99.99
2018-02-16T05:45:43.122Z,99.99
2018-02-16T05:46:43.173Z,99.99
2018-02-16T05:47:43.227Z,99.99
2018-02-16T05:48:43.279Z,99.99
2018-02-16T05:49:43.331Z,99.99
2018-02-16T05:50:43.384Z,99.99
2018-02-16T05:51:43.436Z,99.99
2018-02-16T05:52:43.489Z,99.99
2018-02-16T05:53:43.542Z,99.99
2018-02-16T05:54:43.596Z,99.99
2018-02-16T05:55:43.646Z,99.99
2018-02-16T05:56:43.703Z,99.99
2018-02-16T05:57:43.751Z,99.99
2018-02-16T05:58:43.804Z,99.99
2018-02-16T05:59:43.858Z,99.99
2018-02-16T06:00:43.910Z,99.99
2018-02-16T06:01:43.963Z,99.99
2018-02-16T06:02:44.016Z,99.99
2018-02-16T06:03:44.068Z,99.99
2018-02-16T06:04:44.154Z,99.99
2018-02-16T06:05:44.173Z,99.99
2018-02-16T06:06:44.226Z,99.99
2018-02-16T06:07:44.283Z,99.99
2018-02-16T06:08:44.581Z,99.99
2018-02-16T06:09:44.383Z,99.99
2018-02-16T06:10:44.436Z,99.99
2018-02-16T06:11:44.489Z,99.99
2018-02-16T06:12:44.540Z,99.99
2018-02-16T06:13:44.591Z,99.99
2018-02-16T06:14:44.651Z,99.99
2018-02-16T06:15:44.699Z,99.99
2018-02-16T06:16:44.751Z,99.99
2018-02-16T06:17:44.804Z,99.99
2018-02-16T06:18:44.857Z,99.99
2018-02-16T06:19:44.910Z,99.99
2018-02-16T06:20:44.996Z,99.99
2018-02-16T06:21:45.017Z,99.99
2018-02-16T06:22:45.067Z,99.99
2018-02-16T06:23:45.121Z,99.99
2018-02-16T06:24:45.173Z,99.99
2018-02-16T06:25:45.257Z,99.99
2018-02-16T06:26:45.277Z,99.99
2018-02-16T06:27:45.331Z,99.99
2018-02-16T06:28:45.382Z,99.99
2018-02-16T06:29:45.435Z,99.99
2018-02-16T06:30:45.487Z,99.99
2018-02-16T06:31:45.540Z,99.99
2018-02-16T06:32:45.592Z,99.99
2018-02-16T06:33:45.650Z,99.99
2018-02-16T06:34:45.697Z,99.99
2018-02-16T06:35:45.751Z,99.99
2018-02-16T06:36:45.801Z,99.99
2018-02-16T06:37:45.888Z,99.99
2018-02-16T06:38:45.907Z,99.99
2018-02-16T06:39:46.334Z,99.99
2018-02-16T06:40:46.011Z,99.99
2018-02-16T06:41:46.064Z,99.99
2018-02-16T06:42:46.117Z,99.99
2018-02-16T06:43:46.172Z,99.99
2018-02-16T06:44:46.222Z,99.99
2018-02-16T06:45:46.274Z,99.99
2018-02-16T06:46:46.327Z,99.99
2018-02-16T06:47:46.383Z,99.99
2018-02-16T06:48:46.431Z,99.99
2018-02-16T06:49:46.484Z,99.99
2018-02-16T06:50:46.538Z,99.99
2018-02-16T06:51:46.590Z,99.99
2018-02-16T06:52:46.642Z,99.99
2018-02-16T06:53:46.695Z,99.99
2018-02-16T06:54:47.393Z,99.99
2018-02-16T06:55:46.801Z,99.99
2018-02-16T06:56:46.852Z,99.99
2018-02-16T06:57:46.905Z,99.99
2018-02-16T06:58:46.957Z,99.99
2018-02-16T06:59:47.010Z,99.99
2018-02-16T07:00:47.071Z,99.99
2018-02-16T07:01:47.115Z,99.99
2018-02-16T07:02:47.168Z,99.99
2018-02-16T07:03:47.220Z,99.99
2018-02-16T07:04:47.279Z,99.99
2018-02-16T07:05:47.332Z,99.99
2018-02-16T07:06:47.760Z,99.99
2018-02-16T07:07:47.430Z,99.99
2018-02-16T07:08:47.481Z,99.99
2018-02-16T07:09:47.573Z,99.99
2018-02-16T07:10:48.063Z,99.99
2018-02-16T07:11:47.640Z,99.99
2018-02-16T07:12:47.691Z,99.99
2018-02-16T07:13:47.743Z,99.99
2018-02-16T07:14:47.797Z,99.99
2018-02-16T07:15:47.849Z,99.99
2018-02-16T07:16:47.902Z,99.99
2018-02-16T07:17:47.953Z,99.99
2018-02-16T07:18:48.008Z,99.99
2018-02-16T07:19:48.060Z,99.99
2018-02-16T07:20:48.113Z,99.99
2018-02-16T07:21:48.164Z,99.99
2018-02-16T07:22:48.218Z,99.99
2018-02-16T07:23:49.062Z,99.99
2018-02-16T07:24:48.322Z,99.99
2018-02-16T07:25:48.375Z,99.99
2018-02-16T07:26:48.428Z,99.99
2018-02-16T07:27:48.480Z,99.99
2018-02-16T07:28:48.533Z,99.99
2018-02-16T07:29:48.789Z,99.99
2018-02-16T07:30:48.638Z,99.99
2018-02-16T07:31:48.692Z,99.99
2018-02-16T07:32:49.273Z,99.99
2018-02-16T07:33:48.796Z,99.99
2018-02-16T07:34:49.432Z,99.99
2018-02-16T07:35:49.154Z,99.99
2018-02-16T07:36:48.956Z,99.99
2018-02-16T07:37:49.009Z,99.99
2018-02-16T07:38:49.062Z,99.99
2018-02-16T07:39:49.115Z,99.99
2018-02-16T07:40:49.166Z,99.99
2018-02-16T07:41:49.223Z,99.99
2018-02-16T07:42:49.273Z,99.99
2018-02-16T07:43:49.326Z,99.99
2018-02-16T07:44:49.380Z,99.99
2018-02-16T07:45:49.431Z,99.99
2018-02-16T07:46:49.490Z,99.99
2018-02-16T07:47:49.538Z,99.99
2018-02-16T07:48:49.595Z,99.99
2018-02-16T07:49:51.066Z,99.99
2018-02-16T07:50:49.697Z,99.99
2018-02-16T07:51:49.750Z,99.99
2018-02-16T07:52:49.802Z,99.99
2018-02-16T07:53:49.856Z,99.99
2018-02-16T07:54:49.914Z,99.99
2018-02-16T07:55:50.445Z,99.99
2018-02-16T07:56:50.686Z,99.99
2018-02-16T07:57:50.791Z,99.99
2018-02-16T07:58:50.830Z,99.99
2018-02-16T07:59:50.857Z,99.99
2018-02-16T08:00:50.237Z,99.99
2018-02-16T08:01:50.875Z,99.99
2018-02-16T08:02:50.333Z,99.99
2018-02-16T08:03:50.388Z,99.99
2018-02-16T08:04:50.441Z,99.99
2018-02-16T08:05:50.492Z,99.99
2018-02-16T08:06:50.547Z,99.99
2018-02-16T08:07:50.599Z,99.99
2018-02-16T08:08:50.652Z,99.99
2018-02-16T08:09:50.720Z,99.99
2018-02-16T08:10:50.759Z,99.99
2018-02-16T08:11:50.813Z,99.99
2018-02-16T08:12:50.871Z,99.99
2018-02-16T08:13:50.919Z,99.99
2018-02-16T08:14:50.973Z,99.99
2018-02-16T08:15:51.400Z,99.99
2018-02-16T08:16:51.079Z,99.99
2018-02-16T08:17:51.132Z,99.99
2018-02-16T08:18:51.185Z,99.99
2018-02-16T08:19:51.240Z,99.99
2018-02-16T08:20:51.297Z,99.99
2018-02-16T08:21:51.348Z,99.99
2018-02-16T08:22:51.401Z,99.99
2018-02-16T08:23:51.456Z,99.99
2018-02-16T08:24:51.507Z,99.99
2018-02-16T08:25:51.561Z,99.99
2018-02-16T08:26:51.621Z,99.99
2018-02-16T08:27:51.671Z,99.99
2018-02-16T08:28:51.722Z,99.99
2018-02-16T08:29:51.776Z,99.99
2018-02-16T08:30:51.829Z,99.99
2018-02-16T08:31:51.883Z,99.99
2018-02-16T08:32:51.939Z,99.99
2018-02-16T08:33:51.992Z,99.99
2018-02-16T08:34:52.048Z,99.99
2018-02-16T08:35:52.102Z,99.99
2018-02-16T08:36:52.154Z,99.99
2018-02-16T08:37:52.208Z,99.99
2018-02-16T08:38:52.260Z,99.99
2018-02-16T08:39:52.466Z,99.99
2018-02-16T08:40:52.368Z,99.99
2018-02-16T08:41:52.422Z,99.99
2018-02-16T08:42:52.477Z,99.99
2018-02-16T08:43:52.532Z,99.99
2018-02-16T08:44:52.584Z,99.99
2018-02-16T08:45:52.641Z,99.99
2018-02-16T08:46:52.692Z,99.99
2018-02-16T08:47:52.748Z,99.99
2018-02-16T08:48:52.800Z,99.99
2018-02-16T08:49:52.855Z,99.99
2018-02-16T08:50:52.908Z,99.99
2018-02-16T08:51:53.163Z,99.99
2018-02-16T08:52:53.306Z,99.99
2018-02-16T08:53:53.072Z,99.99
2018-02-16T08:54:53.124Z,99.99
2018-02-16T08:55:53.180Z,99.99
2018-02-16T08:56:53.233Z,99.99
2018-02-16T08:57:53.287Z,99.99
2018-02-16T08:58:53.341Z,99.99
2018-02-16T08:59:53.397Z,99.99
2018-02-16T09:00:53.457Z,99.99
2018-02-16T09:01:53.504Z,99.99
2018-02-16T09:02:53.712Z,99.99
2018-02-16T09:03:53.614Z,99.99
2018-02-16T09:04:53.667Z,99.99
2018-02-16T09:05:53.723Z,99.99
2018-02-16T09:06:53.777Z,99.99
2018-02-16T09:07:53.831Z,99.99
2018-02-16T09:08:53.884Z,99.99
2018-02-16T09:09:53.976Z,99.99
2018-02-16T09:10:53.996Z,99.99
2018-02-16T09:11:54.061Z,99.99
2018-02-16T09:12:54.102Z,99.99
2018-02-16T09:13:54.241Z,99.99
2018-02-16T09:14:54.212Z,99.99
2018-02-16T09:15:54.266Z,99.99
2018-02-16T09:16:54.321Z,99.99
2018-02-16T09:17:54.376Z,99.99
2018-02-16T09:18:54.433Z,99.99
2018-02-16T09:19:54.485Z,99.99
2018-02-16T09:20:54.540Z,99.99
2018-02-16T09:21:54.593Z,99.99
2018-02-16T09:22:54.649Z,99.99
2018-02-16T09:23:54.704Z,99.99
2018-02-16T09:24:54.758Z,99.99
2018-02-16T09:25:54.813Z,99.99
2018-02-16T09:26:54.867Z,99.99
2018-02-16T09:27:54.942Z,99.99
2018-02-16T09:28:54.978Z,99.99
2018-02-16T09:29:55.034Z,99.99
2018-02-16T09:30:55.089Z,99.99
2018-02-16T09:31:55.297Z,99.86
2018-02-16T09:32:55.198Z,99.96
2018-02-16T09:33:55.252Z,99.96
2018-02-16T09:34:55.311Z,99.77
2018-02-16T09:35:55.371Z,99.96
2018-02-16T09:36:55.421Z,99.99
2018-02-16T09:37:55.474Z,99.82
2018-02-16T09:38:55.961Z,99.91
2018-02-16T09:39:55.587Z,99.99
2018-02-16T09:40:55.660Z,99.15
2018-02-16T09:41:55.696Z,98.82
2018-02-16T09:42:55.752Z,98.21
2018-02-16T09:43:55.807Z,98.07
2018-02-16T09:44:55.862Z,97.69
2018-02-16T09:45:55.920Z,97.69
2018-02-16T09:46:55.976Z,97.21
2018-02-16T09:47:56.032Z,97.21
2018-02-16T09:48:56.086Z,97.40
2018-02-16T09:49:56.148Z,97.31
2018-02-16T09:50:56.198Z,97.02
2018-02-16T09:51:56.258Z,97.12
2018-02-16T09:52:56.311Z,97.02
2018-02-16T09:53:56.367Z,97.59
2018-02-16T09:54:56.424Z,97.78
2018-02-16T09:55:57.238Z,97.50
2018-02-16T09:56:56.537Z,97.59
2018-02-16T09:57:56.594Z,97.31
2018-02-16T09:58:56.967Z,97.59
2018-02-16T09:59:56.907Z,96.73
2018-02-16T10:00:56.807Z,96.83
2018-02-16T10:01:56.819Z,96.92
2018-02-16T10:02:56.877Z,97.17
2018-02-16T10:03:56.935Z,96.88
2018-02-16T10:04:56.989Z,95.55
2018-02-16T10:05:57.049Z,95.36
2018-02-16T10:06:57.104Z,94.70
2018-02-16T10:07:57.161Z,94.60
2018-02-16T10:08:57.218Z,94.13
2018-02-16T10:09:57.275Z,93.84
2018-02-16T10:10:57.334Z,94.08
2018-02-16T10:11:57.394Z,93.37
2018-02-16T10:12:57.448Z,93.60
2018-02-16T10:13:57.504Z,93.23
2018-02-16T10:14:57.577Z,93.32
2018-02-16T10:15:57.682Z,92.56
2018-02-16T10:16:57.674Z,92.47
2018-02-16T10:17:57.736Z,93.27
2018-02-16T10:18:57.791Z,93.18
2018-02-16T10:19:57.849Z,93.65
2018-02-16T10:20:57.906Z,93.75
2018-02-16T10:21:57.974Z,94.13
2018-02-16T10:22:58.021Z,94.13
2018-02-16T10:23:58.328Z,94.60
2018-02-16T10:24:58.135Z,94.70
2018-02-16T10:25:58.192Z,94.51
2018-02-16T10:26:58.251Z,94.89
2018-02-16T10:27:58.309Z,94.51
2018-02-16T10:28:58.367Z,93.41
2018-02-16T10:29:58.423Z,92.94
2018-02-16T10:30:58.481Z,93.04
2018-02-16T10:31:58.554Z,92.28
2018-02-16T10:32:58.636Z,92.66
2018-02-16T10:33:58.651Z,93.41
2018-02-16T10:34:58.710Z,92.75
2018-02-16T10:35:58.769Z,92.37
2018-02-16T10:36:58.824Z,92.75
2018-02-16T10:37:58.882Z,92.94
2018-02-16T10:38:58.941Z,92.47
2018-02-16T10:39:58.997Z,92.37
2018-02-16T10:40:59.831Z,92.56
2018-02-16T10:41:59.141Z,93.04
2018-02-16T10:42:59.170Z,93.32
2018-02-16T10:43:59.229Z,93.60
2018-02-16T10:44:59.285Z,93.51
2018-02-16T10:45:59.342Z,93.60
2018-02-16T10:46:59.552Z,93.13
2018-02-16T10:47:59.460Z,93.41
2018-02-16T10:48:59.515Z,93.04
2018-02-16T10:49:59.918Z,93.41
2018-02-16T10:50:59.676Z,93.32
2018-02-16T10:51:59.690Z,93.23
2018-02-16T10:52:59.776Z,93.41
2018-02-16T10:53:59.802Z,92.51
2018-02-16T10:54:59.871Z,91.94
2018-02-16T10:55:59.919Z,92.18
2018-02-16T10:56:59.974Z,91.66
2018-02-16T10:58:00.033Z,91.85
2018-02-16T10:59:00.091Z,92.04
2018-02-16T11:00:00.152Z,91.94
2018-02-16T11:01:00.205Z,91.47
2018-02-16T11:02:00.266Z,91.19
2018-02-16T11:03:00.327Z,91.94
2018-02-16T11:04:00.377Z,91.38
2018-02-16T11:05:00.435Z,90.33
2018-02-16T11:06:00.491Z,90.00
2018-02-16T11:07:00.551Z,89.90
2018-02-16T11:08:01.013Z,90.09
2018-02-16T11:09:00.665Z,89.42
2018-02-16T11:10:00.723Z,88.76
2018-02-16T11:11:00.781Z,88.19
2018-02-16T11:12:00.838Z,88.04
2018-02-16T11:13:00.896Z,87.85
2018-02-16T11:14:00.955Z,87.52
2018-02-16T11:15:01.013Z,87.90
2018-02-16T11:16:01.070Z,87.85
2018-02-16T11:17:01.128Z,86.99
2018-02-16T11:18:01.186Z,87.85
2018-02-16T11:19:01.246Z,87.38
2018-02-16T11:20:01.306Z,86.90
2018-02-16T11:21:01.363Z,86.24
2018-02-16T11:22:01.421Z,85.80
2018-02-16T11:23:01.483Z,84.85
2018-02-16T11:24:01.540Z,84.14
2018-02-16T11:25:01.598Z,83.67
2018-02-16T11:26:01.657Z,84.81
2018-02-16T11:27:01.714Z,84.81
2018-02-16T11:28:01.774Z,84.33
2018-02-16T11:29:01.834Z,84.72
2018-02-16T11:30:02.277Z,84.14
2018-02-16T11:31:01.954Z,83.76
2018-02-16T11:32:02.012Z,83.19
2018-02-16T11:33:02.069Z,82.43
2018-02-16T11:34:02.128Z,83.58
2018-02-16T11:35:02.187Z,81.38
2018-02-16T11:36:02.246Z,81.20
2018-02-16T11:37:02.306Z,80.76
2018-02-16T11:38:02.366Z,78.77
2018-02-16T11:39:02.425Z,77.91
2018-02-16T11:40:02.484Z,76.76
2018-02-16T11:41:02.853Z,75.95
2018-02-16T11:42:02.604Z,74.37
2018-02-16T11:43:02.664Z,72.60
2018-02-16T11:44:02.723Z,70.63
2018-02-16T11:45:02.784Z,69.23
2018-02-16T11:46:02.843Z,66.60
2018-02-16T11:47:02.905Z,65.58
2018-02-16T11:48:02.967Z,62.62
2018-02-16T11:49:03.026Z,65.64
2018-02-16T11:50:03.089Z,69.17
2018-02-16T11:51:03.149Z,71.38
2018-02-16T11:52:03.211Z,74.10
2018-02-16T11:53:03.281Z,73.95
2018-02-16T11:54:03.333Z,73.91
2018-02-16T11:55:03.393Z,74.48
2018-02-16T11:56:03.454Z,76.92
2018-02-16T11:57:03.826Z,76.63
2018-02-16T11:58:03.594Z,76.67
2018-02-16T11:59:03.636Z,72.88
2018-02-16T12:00:03.704Z,69.93
2018-02-16T12:01:03.759Z,69.23
2018-02-16T12:02:03.824Z,69.79
2018-02-16T12:03:03.877Z,69.68
2018-02-16T12:04:03.938Z,67.14
2018-02-16T12:05:03.999Z,64.65
2018-02-16T12:06:04.060Z,63.60
2018-02-16T12:07:04.119Z,65.07
2018-02-16T12:08:04.180Z,68.94
2018-02-16T12:09:04.262Z,68.34
2018-02-16T12:10:04.303Z,64.37
2018-02-16T12:11:04.361Z,61.95
2018-02-16T12:12:04.421Z,62.52
2018-02-16T12:13:04.485Z,59.59
2018-02-16T12:14:04.547Z,59.02
2018-02-16T12:15:04.604Z,59.15
2018-02-16T12:16:04.664Z,59.44
2018-02-16T12:17:04.726Z,59.73
2018-02-16T12:18:04.786Z,62.40
2018-02-16T12:19:04.849Z,65.70
2018-02-16T12:20:04.909Z,69.10
2018-02-16T12:21:04.970Z,70.43
2018-02-16T12:22:05.031Z,70.21
2018-02-16T12:23:05.869Z,66.75
2018-02-16T12:24:05.858Z,61.47
2018-02-16T12:25:05.788Z,59.85
2018-02-16T12:26:05.862Z,59.85
2018-02-16T12:27:05.336Z,63.48
2018-02-16T12:28:05.397Z,68.24
2018-02-16T12:29:05.707Z,70.87
2018-02-16T12:30:05.519Z,69.48
2018-02-16T12:31:05.580Z,64.97
2018-02-16T12:32:05.640Z,61.41
2018-02-16T12:33:05.701Z,61.22
2018-02-16T12:34:05.762Z,62.02
2018-02-16T12:35:05.825Z,58.99
2018-02-16T12:36:05.884Z,59.66
2018-02-16T12:37:05.946Z,57.68
2018-02-16T12:38:06.007Z,57.02
2018-02-16T12:39:06.068Z,56.89
2018-02-16T12:40:06.156Z,57.11
2018-02-16T12:41:06.193Z,57.53
2018-02-16T12:42:06.252Z,58.94
2018-02-16T12:43:06.313Z,58.80
2018-02-16T12:44:06.376Z,57.56
2018-02-16T12:45:06.438Z,58.55
2018-02-16T12:46:06.499Z,61.54
2018-02-16T12:47:06.562Z,64.47
2018-02-16T12:48:06.623Z,65.80
2018-02-16T12:49:06.683Z,66.46
2018-02-16T12:50:06.745Z,68.05
2018-02-16T12:51:06.807Z,69.63
2018-02-16T12:52:06.868Z,71.53
2018-02-16T12:53:06.928Z,72.01